sensor_id;sensor_type;location;lat;lon;timestamp;P1;durP1;ratioP1;P2;durP2;ratioP2
10281;SDS011;5186;59.472;18.048;2023-07-31T00:02:00;3.73;;;3.43;;
10281;SDS011;5186;59.472;18.048;2023-07-31T00:04:26;4.23;;;3.47;;
10281;SDS011;5186;59.472;18.048;2023-07-31T00:06:51;5.70;;;3.37;;
10281;SDS011;5186;59.472;18.048;2023-07-31T00:09:17;3.33;;;3.03;;
10281;SDS011;5186;59.472;18.048;2023-07-31T00:11:42;3.90;;;3.50;;
10281;SDS011;5186;59.472;18.048;2023-07-31T00:14:08;3.80;;;3.40;;
10281;SDS011;5186;59.472;18.048;2023-07-31T00:16:33;4.70;;;3.83;;
10281;SDS011;5186;59.472;18.048;2023-07-31T00:18:59;3.80;;;3.20;;
10281;SDS011;5186;59.472;18.048;2023-07-31T00:21:25;4.30;;;3.63;;
10281;SDS011;5186;59.472;18.048;2023-07-31T00:23:50;3.83;;;3.40;;
10281;SDS011;5186;59.472;18.048;2023-07-31T00:26:16;4.57;;;3.93;;
10281;SDS011;5186;59.472;18.048;2023-07-31T00:28:41;4.63;;;4.17;;
10281;SDS011;5186;59.472;18.048;2023-07-31T00:31:07;4.97;;;3.80;;
10281;SDS011;5186;59.472;18.048;2023-07-31T00:33:34;4.57;;;4.07;;
10281;SDS011;5186;59.472;18.048;2023-07-31T00:36:01;4.87;;;4.10;;
10281;SDS011;5186;59.472;18.048;2023-07-31T00:38:27;22.57;;;3.50;;
10281;SDS011;5186;59.472;18.048;2023-07-31T00:40:52;3.70;;;3.23;;
10281;SDS011;5186;59.472;18.048;2023-07-31T00:43:18;3.80;;;3.40;;
10281;SDS011;5186;59.472;18.048;2023-07-31T00:45:43;3.57;;;3.17;;
10281;SDS011;5186;59.472;18.048;2023-07-31T00:48:09;4.07;;;2.97;;
10281;SDS011;5186;59.472;18.048;2023-07-31T00:50:35;4.47;;;3.30;;
10281;SDS011;5186;59.472;18.048;2023-07-31T00:53:01;5.77;;;3.73;;
10281;SDS011;5186;59.472;18.048;2023-07-31T00:55:27;3.83;;;3.40;;
10281;SDS011;5186;59.472;18.048;2023-07-31T00:57:54;4.37;;;3.73;;
10281;SDS011;5186;59.472;18.048;2023-07-31T01:00:20;3.77;;;3.13;;
10281;SDS011;5186;59.472;18.048;2023-07-31T01:02:47;4.20;;;3.20;;
10281;SDS011;5186;59.472;18.048;2023-07-31T01:05:14;3.73;;;3.23;;
10281;SDS011;5186;59.472;18.048;2023-07-31T01:10:25;7.07;;;3.13;;
10281;SDS011;5186;59.472;18.048;2023-07-31T01:12:54;3.20;;;2.90;;
10281;SDS011;5186;59.472;18.048;2023-07-31T01:15:22;3.50;;;3.20;;
10281;SDS011;5186;59.472;18.048;2023-07-31T01:17:48;3.63;;;2.83;;
10281;SDS011;5186;59.472;18.048;2023-07-31T01:27:59;3.77;;;3.30;;
10281;SDS011;5186;59.472;18.048;2023-07-31T01:30:29;3.90;;;3.30;;
10281;SDS011;5186;59.472;18.048;2023-07-31T01:33:02;5.23;;;3.13;;
10281;SDS011;5186;59.472;18.048;2023-07-31T01:35:36;3.70;;;3.20;;
10281;SDS011;5186;59.472;18.048;2023-07-31T01:38:03;3.60;;;3.30;;
10281;SDS011;5186;59.472;18.048;2023-07-31T01:40:29;4.60;;;3.40;;
10281;SDS011;5186;59.472;18.048;2023-07-31T01:42:55;3.70;;;3.30;;
10281;SDS011;5186;59.472;18.048;2023-07-31T01:45:21;3.10;;;2.80;;
10281;SDS011;5186;59.472;18.048;2023-07-31T01:47:46;3.27;;;2.97;;
10281;SDS011;5186;59.472;18.048;2023-07-31T01:50:12;3.53;;;2.97;;
10281;SDS011;5186;59.472;18.048;2023-07-31T01:52:37;3.27;;;2.97;;
10281;SDS011;5186;59.472;18.048;2023-07-31T01:55:03;3.90;;;3.50;;
10281;SDS011;5186;59.472;18.048;2023-07-31T01:57:29;4.57;;;3.23;;
10281;SDS011;5186;59.472;18.048;2023-07-31T01:59:54;5.20;;;3.30;;
10281;SDS011;5186;59.472;18.048;2023-07-31T02:02:21;4.00;;;3.13;;
10281;SDS011;5186;59.472;18.048;2023-07-31T02:04:48;3.43;;;3.13;;
10281;SDS011;5186;59.472;18.048;2023-07-31T02:07:13;3.67;;;3.37;;
10281;SDS011;5186;59.472;18.048;2023-07-31T02:09:39;3.70;;;3.07;;
10281;SDS011;5186;59.472;18.048;2023-07-31T02:12:05;3.20;;;2.90;;
10281;SDS011;5186;59.472;18.048;2023-07-31T02:14:30;4.37;;;3.57;;
10281;SDS011;5186;59.472;18.048;2023-07-31T02:16:56;3.20;;;2.90;;
10281;SDS011;5186;59.472;18.048;2023-07-31T02:19:21;5.30;;;3.57;;
10281;SDS011;5186;59.472;18.048;2023-07-31T02:21:47;3.73;;;3.43;;
10281;SDS011;5186;59.472;18.048;2023-07-31T02:24:13;4.00;;;3.57;;
10281;SDS011;5186;59.472;18.048;2023-07-31T02:26:39;4.40;;;3.43;;
10281;SDS011;5186;59.472;18.048;2023-07-31T02:29:05;4.13;;;3.73;;
10281;SDS011;5186;59.472;18.048;2023-07-31T02:31:30;4.97;;;4.00;;
10281;SDS011;5186;59.472;18.048;2023-07-31T02:33:56;5.10;;;4.23;;
10281;SDS011;5186;59.472;18.048;2023-07-31T02:36:21;4.77;;;3.70;;
10281;SDS011;5186;59.472;18.048;2023-07-31T02:38:47;5.47;;;4.50;;
10281;SDS011;5186;59.472;18.048;2023-07-31T02:41:12;5.40;;;4.47;;
10281;SDS011;5186;59.472;18.048;2023-07-31T02:43:38;6.23;;;4.80;;
10281;SDS011;5186;59.472;18.048;2023-07-31T02:46:03;5.67;;;4.57;;
10281;SDS011;5186;59.472;18.048;2023-07-31T02:48:29;5.63;;;4.07;;
10281;SDS011;5186;59.472;18.048;2023-07-31T02:50:54;5.57;;;4.60;;
10281;SDS011;5186;59.472;18.048;2023-07-31T02:53:20;5.60;;;4.17;;
10281;SDS011;5186;59.472;18.048;2023-07-31T02:55:46;5.27;;;4.07;;
10281;SDS011;5186;59.472;18.048;2023-07-31T02:58:12;4.63;;;4.10;;
10281;SDS011;5186;59.472;18.048;2023-07-31T03:00:41;5.50;;;4.23;;
10281;SDS011;5186;59.472;18.048;2023-07-31T03:03:10;5.43;;;4.53;;
10281;SDS011;5186;59.472;18.048;2023-07-31T03:05:36;5.20;;;3.77;;
10281;SDS011;5186;59.472;18.048;2023-07-31T03:08:02;4.47;;;3.73;;
10281;SDS011;5186;59.472;18.048;2023-07-31T03:10:28;4.53;;;3.90;;
10281;SDS011;5186;59.472;18.048;2023-07-31T03:12:54;4.40;;;4.00;;
10281;SDS011;5186;59.472;18.048;2023-07-31T03:15:19;8.43;;;4.17;;
10281;SDS011;5186;59.472;18.048;2023-07-31T03:17:45;6.27;;;4.37;;
10281;SDS011;5186;59.472;18.048;2023-07-31T03:20:11;4.60;;;3.83;;
10281;SDS011;5186;59.472;18.048;2023-07-31T03:22:36;4.80;;;4.13;;
10281;SDS011;5186;59.472;18.048;2023-07-31T03:25:03;4.90;;;4.17;;
10281;SDS011;5186;59.472;18.048;2023-07-31T03:27:29;6.37;;;4.70;;
10281;SDS011;5186;59.472;18.048;2023-07-31T03:29:54;5.73;;;4.23;;
10281;SDS011;5186;59.472;18.048;2023-07-31T03:32:20;4.67;;;4.17;;
10281;SDS011;5186;59.472;18.048;2023-07-31T03:34:46;4.70;;;4.20;;
10281;SDS011;5186;59.472;18.048;2023-07-31T03:37:11;5.60;;;4.43;;
10281;SDS011;5186;59.472;18.048;2023-07-31T03:39:37;5.60;;;4.23;;
10281;SDS011;5186;59.472;18.048;2023-07-31T03:42:03;4.90;;;4.40;;
10281;SDS011;5186;59.472;18.048;2023-07-31T03:44:29;6.20;;;4.67;;
10281;SDS011;5186;59.472;18.048;2023-07-31T03:46:54;5.33;;;4.60;;
10281;SDS011;5186;59.472;18.048;2023-07-31T03:49:20;5.77;;;4.40;;
10281;SDS011;5186;59.472;18.048;2023-07-31T03:51:45;6.43;;;4.43;;
10281;SDS011;5186;59.472;18.048;2023-07-31T03:54:11;6.37;;;5.70;;
10281;SDS011;5186;59.472;18.048;2023-07-31T03:56:38;6.63;;;5.00;;
10281;SDS011;5186;59.472;18.048;2023-07-31T03:59:03;6.33;;;4.83;;
10281;SDS011;5186;59.472;18.048;2023-07-31T04:01:29;5.93;;;5.07;;
10281;SDS011;5186;59.472;18.048;2023-07-31T04:03:54;7.03;;;4.53;;
10281;SDS011;5186;59.472;18.048;2023-07-31T04:06:20;11.67;;;4.97;;
10281;SDS011;5186;59.472;18.048;2023-07-31T04:08:45;7.47;;;5.20;;
10281;SDS011;5186;59.472;18.048;2023-07-31T04:11:11;7.33;;;4.23;;
10281;SDS011;5186;59.472;18.048;2023-07-31T04:13:40;6.70;;;5.17;;
10281;SDS011;5186;59.472;18.048;2023-07-31T04:16:05;7.87;;;4.93;;
10281;SDS011;5186;59.472;18.048;2023-07-31T04:18:31;7.37;;;5.27;;
10281;SDS011;5186;59.472;18.048;2023-07-31T04:20:57;6.23;;;5.50;;
10281;SDS011;5186;59.472;18.048;2023-07-31T04:23:27;7.70;;;5.43;;
10281;SDS011;5186;59.472;18.048;2023-07-31T04:25:53;7.77;;;5.20;;
10281;SDS011;5186;59.472;18.048;2023-07-31T04:28:18;7.13;;;5.43;;
10281;SDS011;5186;59.472;18.048;2023-07-31T04:30:44;8.70;;;5.30;;
10281;SDS011;5186;59.472;18.048;2023-07-31T04:33:09;13.40;;;6.13;;
10281;SDS011;5186;59.472;18.048;2023-07-31T04:35:35;6.47;;;5.57;;
10281;SDS011;5186;59.472;18.048;2023-07-31T04:38:00;8.23;;;6.13;;
10281;SDS011;5186;59.472;18.048;2023-07-31T04:40:26;10.87;;;6.57;;
10281;SDS011;5186;59.472;18.048;2023-07-31T04:42:52;9.63;;;7.00;;
10281;SDS011;5186;59.472;18.048;2023-07-31T04:45:17;11.07;;;7.50;;
10281;SDS011;5186;59.472;18.048;2023-07-31T04:47:43;11.27;;;6.50;;
10281;SDS011;5186;59.472;18.048;2023-07-31T04:50:09;9.83;;;6.33;;
10281;SDS011;5186;59.472;18.048;2023-07-31T04:52:34;9.60;;;6.47;;
10281;SDS011;5186;59.472;18.048;2023-07-31T04:55:00;9.20;;;6.60;;
10281;SDS011;5186;59.472;18.048;2023-07-31T04:57:26;13.60;;;7.17;;
10281;SDS011;5186;59.472;18.048;2023-07-31T04:59:51;8.53;;;7.40;;
10281;SDS011;5186;59.472;18.048;2023-07-31T05:02:17;10.23;;;7.30;;
10281;SDS011;5186;59.472;18.048;2023-07-31T05:04:43;9.10;;;7.63;;
10281;SDS011;5186;59.472;18.048;2023-07-31T05:07:08;11.63;;;8.67;;
10281;SDS011;5186;59.472;18.048;2023-07-31T05:09:34;12.90;;;8.40;;
10281;SDS011;5186;59.472;18.048;2023-07-31T05:11:59;10.93;;;8.00;;
10281;SDS011;5186;59.472;18.048;2023-07-31T05:14:25;11.87;;;8.40;;
10281;SDS011;5186;59.472;18.048;2023-07-31T05:16:51;13.43;;;8.77;;
10281;SDS011;5186;59.472;18.048;2023-07-31T05:19:17;11.67;;;8.60;;
10281;SDS011;5186;59.472;18.048;2023-07-31T05:21:42;9.03;;;8.07;;
10281;SDS011;5186;59.472;18.048;2023-07-31T05:24:08;12.30;;;8.90;;
10281;SDS011;5186;59.472;18.048;2023-07-31T05:26:34;10.97;;;9.00;;
10281;SDS011;5186;59.472;18.048;2023-07-31T05:29:00;11.30;;;8.93;;
10281;SDS011;5186;59.472;18.048;2023-07-31T05:31:25;12.37;;;10.53;;
10281;SDS011;5186;59.472;18.048;2023-07-31T05:33:51;14.03;;;10.80;;
10281;SDS011;5186;59.472;18.048;2023-07-31T05:36:17;14.43;;;10.13;;
10281;SDS011;5186;59.472;18.048;2023-07-31T05:38:42;14.47;;;11.57;;
10281;SDS011;5186;59.472;18.048;2023-07-31T05:41:14;12.00;;;10.80;;
10281;SDS011;5186;59.472;18.048;2023-07-31T05:43:39;13.73;;;11.37;;
10281;SDS011;5186;59.472;18.048;2023-07-31T05:46:06;14.40;;;11.00;;
10281;SDS011;5186;59.472;18.048;2023-07-31T05:48:31;13.53;;;11.60;;
10281;SDS011;5186;59.472;18.048;2023-07-31T05:50:59;15.03;;;12.23;;
10281;SDS011;5186;59.472;18.048;2023-07-31T05:53:24;16.67;;;11.90;;
10281;SDS011;5186;59.472;18.048;2023-07-31T05:55:50;16.90;;;13.27;;
10281;SDS011;5186;59.472;18.048;2023-07-31T05:58:15;14.63;;;12.03;;
10281;SDS011;5186;59.472;18.048;2023-07-31T06:00:41;16.70;;;12.67;;
10281;SDS011;5186;59.472;18.048;2023-07-31T06:03:07;15.40;;;12.53;;
10281;SDS011;5186;59.472;18.048;2023-07-31T06:05:32;14.57;;;11.77;;
10281;SDS011;5186;59.472;18.048;2023-07-31T06:07:58;16.03;;;12.50;;
10281;SDS011;5186;59.472;18.048;2023-07-31T06:10:24;14.97;;;11.57;;
10281;SDS011;5186;59.472;18.048;2023-07-31T06:12:49;13.73;;;11.70;;
10281;SDS011;5186;59.472;18.048;2023-07-31T06:15:15;11.83;;;10.37;;
10281;SDS011;5186;59.472;18.048;2023-07-31T06:17:40;13.93;;;11.17;;
10281;SDS011;5186;59.472;18.048;2023-07-31T06:20:07;11.90;;;10.60;;
10281;SDS011;5186;59.472;18.048;2023-07-31T06:22:33;12.47;;;10.37;;
10281;SDS011;5186;59.472;18.048;2023-07-31T06:24:58;11.00;;;9.90;;
10281;SDS011;5186;59.472;18.048;2023-07-31T06:27:24;12.40;;;9.83;;
10281;SDS011;5186;59.472;18.048;2023-07-31T06:29:50;10.20;;;9.20;;
10281;SDS011;5186;59.472;18.048;2023-07-31T06:32:15;11.23;;;9.83;;
10281;SDS011;5186;59.472;18.048;2023-07-31T06:34:41;11.00;;;9.73;;
10281;SDS011;5186;59.472;18.048;2023-07-31T06:37:07;11.43;;;10.23;;
10281;SDS011;5186;59.472;18.048;2023-07-31T06:39:32;13.33;;;10.73;;
10281;SDS011;5186;59.472;18.048;2023-07-31T06:41:58;11.67;;;9.90;;
10281;SDS011;5186;59.472;18.048;2023-07-31T06:44:24;12.10;;;10.57;;
10281;SDS011;5186;59.472;18.048;2023-07-31T06:46:50;13.07;;;10.60;;
10281;SDS011;5186;59.472;18.048;2023-07-31T06:49:16;11.43;;;10.13;;
10281;SDS011;5186;59.472;18.048;2023-07-31T06:51:41;11.90;;;10.17;;
10281;SDS011;5186;59.472;18.048;2023-07-31T06:54:07;11.93;;;9.70;;
10281;SDS011;5186;59.472;18.048;2023-07-31T06:56:33;15.20;;;9.60;;
10281;SDS011;5186;59.472;18.048;2023-07-31T06:58:59;10.00;;;8.97;;
10281;SDS011;5186;59.472;18.048;2023-07-31T07:01:25;9.40;;;8.40;;
10281;SDS011;5186;59.472;18.048;2023-07-31T07:03:50;8.87;;;7.97;;
10281;SDS011;5186;59.472;18.048;2023-07-31T07:06:19;9.57;;;7.97;;
10281;SDS011;5186;59.472;18.048;2023-07-31T07:08:45;9.03;;;7.93;;
10281;SDS011;5186;59.472;18.048;2023-07-31T07:11:10;8.47;;;6.07;;
10281;SDS011;5186;59.472;18.048;2023-07-31T07:13:36;7.07;;;6.07;;
10281;SDS011;5186;59.472;18.048;2023-07-31T07:16:01;7.57;;;6.20;;
10281;SDS011;5186;59.472;18.048;2023-07-31T07:18:27;9.07;;;6.03;;
10281;SDS011;5186;59.472;18.048;2023-07-31T07:20:53;7.27;;;5.10;;
10281;SDS011;5186;59.472;18.048;2023-07-31T07:23:19;5.87;;;5.23;;
10281;SDS011;5186;59.472;18.048;2023-07-31T07:25:46;5.53;;;4.47;;
10281;SDS011;5186;59.472;18.048;2023-07-31T07:28:12;4.83;;;4.43;;
10281;SDS011;5186;59.472;18.048;2023-07-31T07:30:38;8.93;;;4.80;;
10281;SDS011;5186;59.472;18.048;2023-07-31T07:33:04;7.83;;;3.70;;
10281;SDS011;5186;59.472;18.048;2023-07-31T07:35:30;11.13;;;4.80;;
10281;SDS011;5186;59.472;18.048;2023-07-31T07:37:58;9.43;;;4.90;;
10281;SDS011;5186;59.472;18.048;2023-07-31T07:40:23;11.60;;;4.37;;
10281;SDS011;5186;59.472;18.048;2023-07-31T07:42:49;9.10;;;3.67;;
10281;SDS011;5186;59.472;18.048;2023-07-31T07:45:15;7.73;;;3.63;;
10281;SDS011;5186;59.472;18.048;2023-07-31T07:47:41;6.10;;;3.47;;
10281;SDS011;5186;59.472;18.048;2023-07-31T07:50:07;4.27;;;3.33;;
10281;SDS011;5186;59.472;18.048;2023-07-31T07:52:33;4.87;;;3.40;;
10281;SDS011;5186;59.472;18.048;2023-07-31T07:54:59;5.27;;;3.03;;
10281;SDS011;5186;59.472;18.048;2023-07-31T07:57:25;4.97;;;3.03;;
10281;SDS011;5186;59.472;18.048;2023-07-31T07:59:50;3.43;;;3.10;;
10281;SDS011;5186;59.472;18.048;2023-07-31T08:02:16;8.43;;;3.30;;
10281;SDS011;5186;59.472;18.048;2023-07-31T08:04:42;4.73;;;3.30;;
10281;SDS011;5186;59.472;18.048;2023-07-31T08:07:07;4.60;;;3.10;;
10281;SDS011;5186;59.472;18.048;2023-07-31T08:09:35;8.27;;;3.00;;
10281;SDS011;5186;59.472;18.048;2023-07-31T08:12:01;4.50;;;3.37;;
10281;SDS011;5186;59.472;18.048;2023-07-31T08:14:28;5.07;;;3.20;;
10281;SDS011;5186;59.472;18.048;2023-07-31T08:16:54;5.00;;;3.00;;
10281;SDS011;5186;59.472;18.048;2023-07-31T08:19:19;5.33;;;3.00;;
10281;SDS011;5186;59.472;18.048;2023-07-31T08:21:45;4.57;;;3.20;;
10281;SDS011;5186;59.472;18.048;2023-07-31T08:24:10;4.50;;;3.40;;
10281;SDS011;5186;59.472;18.048;2023-07-31T08:26:36;5.20;;;3.20;;
10281;SDS011;5186;59.472;18.048;2023-07-31T08:29:01;4.80;;;2.90;;
10281;SDS011;5186;59.472;18.048;2023-07-31T08:31:27;4.60;;;3.23;;
10281;SDS011;5186;59.472;18.048;2023-07-31T08:33:54;5.27;;;3.10;;
10281;SDS011;5186;59.472;18.048;2023-07-31T08:36:20;5.70;;;3.30;;
10281;SDS011;5186;59.472;18.048;2023-07-31T08:38:45;6.00;;;3.60;;
10281;SDS011;5186;59.472;18.048;2023-07-31T08:41:11;4.50;;;2.73;;
10281;SDS011;5186;59.472;18.048;2023-07-31T08:43:38;5.13;;;3.00;;
10281;SDS011;5186;59.472;18.048;2023-07-31T08:46:04;8.33;;;2.80;;
10281;SDS011;5186;59.472;18.048;2023-07-31T08:48:31;3.80;;;2.67;;
10281;SDS011;5186;59.472;18.048;2023-07-31T08:50:58;5.10;;;2.80;;
10281;SDS011;5186;59.472;18.048;2023-07-31T08:53:23;5.07;;;2.90;;
10281;SDS011;5186;59.472;18.048;2023-07-31T08:55:49;6.20;;;2.97;;
10281;SDS011;5186;59.472;18.048;2023-07-31T08:58:17;5.50;;;2.97;;
10281;SDS011;5186;59.472;18.048;2023-07-31T09:00:43;5.03;;;2.87;;
10281;SDS011;5186;59.472;18.048;2023-07-31T09:03:15;7.67;;;3.03;;
10281;SDS011;5186;59.472;18.048;2023-07-31T09:05:43;4.60;;;2.70;;
10281;SDS011;5186;59.472;18.048;2023-07-31T09:08:10;3.60;;;2.77;;
10281;SDS011;5186;59.472;18.048;2023-07-31T09:10:41;5.80;;;3.03;;
10281;SDS011;5186;59.472;18.048;2023-07-31T09:13:08;7.83;;;3.20;;
10281;SDS011;5186;59.472;18.048;2023-07-31T09:15:35;7.87;;;3.10;;
10281;SDS011;5186;59.472;18.048;2023-07-31T09:18:02;6.40;;;3.30;;
10281;SDS011;5186;59.472;18.048;2023-07-31T09:20:28;5.93;;;2.93;;
10281;SDS011;5186;59.472;18.048;2023-07-31T09:22:54;7.20;;;3.37;;
10281;SDS011;5186;59.472;18.048;2023-07-31T09:25:21;6.17;;;2.73;;
10281;SDS011;5186;59.472;18.048;2023-07-31T09:27:57;6.87;;;2.90;;
10281;SDS011;5186;59.472;18.048;2023-07-31T09:30:27;4.53;;;2.80;;
10281;SDS011;5186;59.472;18.048;2023-07-31T09:33:00;4.63;;;2.60;;
10281;SDS011;5186;59.472;18.048;2023-07-31T09:37:53;5.83;;;2.70;;
10281;SDS011;5186;59.472;18.048;2023-07-31T09:40:24;5.13;;;2.73;;
10281;SDS011;5186;59.472;18.048;2023-07-31T09:42:56;5.10;;;2.80;;
10281;SDS011;5186;59.472;18.048;2023-07-31T09:45:29;7.23;;;3.67;;
10281;SDS011;5186;59.472;18.048;2023-07-31T09:47:55;5.17;;;2.80;;
10281;SDS011;5186;59.472;18.048;2023-07-31T09:50:22;3.83;;;2.73;;
10281;SDS011;5186;59.472;18.048;2023-07-31T09:52:52;5.40;;;2.67;;
10281;SDS011;5186;59.472;18.048;2023-07-31T09:55:19;5.70;;;2.80;;
10281;SDS011;5186;59.472;18.048;2023-07-31T09:57:45;6.53;;;2.60;;
10281;SDS011;5186;59.472;18.048;2023-07-31T10:00:13;4.73;;;2.70;;
10281;SDS011;5186;59.472;18.048;2023-07-31T10:02:41;4.40;;;2.40;;
10281;SDS011;5186;59.472;18.048;2023-07-31T10:05:15;5.87;;;2.10;;
10281;SDS011;5186;59.472;18.048;2023-07-31T10:07:42;7.47;;;2.90;;
10281;SDS011;5186;59.472;18.048;2023-07-31T10:10:11;4.47;;;2.30;;
10281;SDS011;5186;59.472;18.048;2023-07-31T10:12:39;6.43;;;2.40;;
10281;SDS011;5186;59.472;18.048;2023-07-31T10:15:05;4.17;;;2.03;;
10281;SDS011;5186;59.472;18.048;2023-07-31T10:17:33;6.70;;;1.90;;
10281;SDS011;5186;59.472;18.048;2023-07-31T10:20:00;3.77;;;1.70;;
10281;SDS011;5186;59.472;18.048;2023-07-31T10:22:29;2.23;;;1.50;;
10281;SDS011;5186;59.472;18.048;2023-07-31T10:24:57;4.00;;;1.90;;
10281;SDS011;5186;59.472;18.048;2023-07-31T10:27:24;2.40;;;1.60;;
10281;SDS011;5186;59.472;18.048;2023-07-31T10:29:50;4.20;;;2.17;;
10281;SDS011;5186;59.472;18.048;2023-07-31T10:32:18;2.10;;;1.60;;
10281;SDS011;5186;59.472;18.048;2023-07-31T10:34:45;5.57;;;1.83;;
10281;SDS011;5186;59.472;18.048;2023-07-31T10:37:19;2.87;;;1.50;;
10281;SDS011;5186;59.472;18.048;2023-07-31T10:39:55;5.43;;;1.70;;
10281;SDS011;5186;59.472;18.048;2023-07-31T10:42:27;2.97;;;1.73;;
10281;SDS011;5186;59.472;18.048;2023-07-31T10:44:56;4.53;;;1.77;;
10281;SDS011;5186;59.472;18.048;2023-07-31T10:47:25;5.17;;;1.70;;
10281;SDS011;5186;59.472;18.048;2023-07-31T10:49:51;4.97;;;1.93;;
10281;SDS011;5186;59.472;18.048;2023-07-31T10:52:20;3.07;;;1.67;;
10281;SDS011;5186;59.472;18.048;2023-07-31T10:55:12;2.60;;;1.73;;
10281;SDS011;5186;59.472;18.048;2023-07-31T10:57:44;3.57;;;2.00;;
10281;SDS011;5186;59.472;18.048;2023-07-31T11:00:19;3.13;;;1.70;;
10281;SDS011;5186;59.472;18.048;2023-07-31T11:03:01;3.13;;;1.67;;
10281;SDS011;5186;59.472;18.048;2023-07-31T11:08:25;5.73;;;1.73;;
10281;SDS011;5186;59.472;18.048;2023-07-31T11:13:27;2.73;;;1.70;;
10281;SDS011;5186;59.472;18.048;2023-07-31T11:15:52;4.47;;;1.30;;
10281;SDS011;5186;59.472;18.048;2023-07-31T11:18:18;5.77;;;1.70;;
10281;SDS011;5186;59.472;18.048;2023-07-31T11:20:44;5.37;;;1.80;;
10281;SDS011;5186;59.472;18.048;2023-07-31T11:23:10;2.27;;;1.47;;
10281;SDS011;5186;59.472;18.048;2023-07-31T11:25:36;3.10;;;1.60;;
10281;SDS011;5186;59.472;18.048;2023-07-31T11:28:07;5.17;;;1.80;;
10281;SDS011;5186;59.472;18.048;2023-07-31T11:30:37;3.40;;;2.00;;
10281;SDS011;5186;59.472;18.048;2023-07-31T11:33:05;4.00;;;2.10;;
10281;SDS011;5186;59.472;18.048;2023-07-31T11:35:33;3.30;;;1.73;;
10281;SDS011;5186;59.472;18.048;2023-07-31T11:38:10;5.07;;;1.83;;
10281;SDS011;5186;59.472;18.048;2023-07-31T11:40:49;2.57;;;1.90;;
10281;SDS011;5186;59.472;18.048;2023-07-31T11:43:14;4.93;;;2.10;;
10281;SDS011;5186;59.472;18.048;2023-07-31T11:45:44;4.17;;;2.10;;
10281;SDS011;5186;59.472;18.048;2023-07-31T11:48:21;5.97;;;2.37;;
10281;SDS011;5186;59.472;18.048;2023-07-31T11:50:49;7.60;;;2.07;;
10281;SDS011;5186;59.472;18.048;2023-07-31T11:53:16;5.43;;;2.03;;
10281;SDS011;5186;59.472;18.048;2023-07-31T11:55:44;5.47;;;2.20;;
10281;SDS011;5186;59.472;18.048;2023-07-31T11:58:11;2.83;;;1.77;;
10281;SDS011;5186;59.472;18.048;2023-07-31T12:00:38;2.67;;;2.00;;
10281;SDS011;5186;59.472;18.048;2023-07-31T12:03:04;7.47;;;2.60;;
10281;SDS011;5186;59.472;18.048;2023-07-31T12:05:29;2.37;;;1.87;;
10281;SDS011;5186;59.472;18.048;2023-07-31T12:07:55;5.37;;;2.20;;
10281;SDS011;5186;59.472;18.048;2023-07-31T12:10:28;2.97;;;1.70;;
10281;SDS011;5186;59.472;18.048;2023-07-31T12:12:56;3.80;;;2.10;;
10281;SDS011;5186;59.472;18.048;2023-07-31T12:15:22;2.27;;;2.07;;
10281;SDS011;5186;59.472;18.048;2023-07-31T12:17:53;5.43;;;2.30;;
10281;SDS011;5186;59.472;18.048;2023-07-31T12:20:19;4.07;;;2.00;;
10281;SDS011;5186;59.472;18.048;2023-07-31T12:22:45;4.17;;;1.77;;
10281;SDS011;5186;59.472;18.048;2023-07-31T12:25:15;4.90;;;2.20;;
10281;SDS011;5186;59.472;18.048;2023-07-31T12:27:43;3.70;;;2.13;;
10281;SDS011;5186;59.472;18.048;2023-07-31T12:30:26;5.67;;;2.53;;
10281;SDS011;5186;59.472;18.048;2023-07-31T12:32:56;3.33;;;2.40;;
10281;SDS011;5186;59.472;18.048;2023-07-31T12:35:22;3.47;;;2.30;;
10281;SDS011;5186;59.472;18.048;2023-07-31T12:37:47;4.37;;;2.07;;
10281;SDS011;5186;59.472;18.048;2023-07-31T12:40:13;3.93;;;2.07;;
10281;SDS011;5186;59.472;18.048;2023-07-31T12:42:38;4.03;;;2.03;;
10281;SDS011;5186;59.472;18.048;2023-07-31T12:45:05;2.97;;;1.97;;
10281;SDS011;5186;59.472;18.048;2023-07-31T12:47:31;4.23;;;2.40;;
10281;SDS011;5186;59.472;18.048;2023-07-31T12:49:57;3.43;;;2.20;;
10281;SDS011;5186;59.472;18.048;2023-07-31T12:52:22;5.10;;;2.57;;
10281;SDS011;5186;59.472;18.048;2023-07-31T12:54:48;4.53;;;2.33;;
10281;SDS011;5186;59.472;18.048;2023-07-31T12:57:13;3.67;;;2.30;;
10281;SDS011;5186;59.472;18.048;2023-07-31T12:59:39;3.83;;;2.20;;
10281;SDS011;5186;59.472;18.048;2023-07-31T13:02:04;5.70;;;2.73;;
10281;SDS011;5186;59.472;18.048;2023-07-31T13:04:30;3.67;;;2.67;;
10281;SDS011;5186;59.472;18.048;2023-07-31T13:06:56;4.00;;;2.20;;
10281;SDS011;5186;59.472;18.048;2023-07-31T13:09:21;3.80;;;2.23;;
10281;SDS011;5186;59.472;18.048;2023-07-31T13:11:47;5.53;;;2.20;;
10281;SDS011;5186;59.472;18.048;2023-07-31T13:14:12;3.70;;;2.20;;
10281;SDS011;5186;59.472;18.048;2023-07-31T13:16:38;4.23;;;1.97;;
10281;SDS011;5186;59.472;18.048;2023-07-31T13:19:03;3.50;;;2.17;;
10281;SDS011;5186;59.472;18.048;2023-07-31T13:21:29;3.50;;;1.50;;
10281;SDS011;5186;59.472;18.048;2023-07-31T13:23:54;2.10;;;1.40;;
10281;SDS011;5186;59.472;18.048;2023-07-31T13:26:22;2.10;;;1.43;;
10281;SDS011;5186;59.472;18.048;2023-07-31T13:28:48;2.40;;;1.47;;
10281;SDS011;5186;59.472;18.048;2023-07-31T13:31:14;2.87;;;1.77;;
10281;SDS011;5186;59.472;18.048;2023-07-31T13:33:39;3.03;;;1.80;;
10281;SDS011;5186;59.472;18.048;2023-07-31T13:36:05;3.43;;;2.13;;
10281;SDS011;5186;59.472;18.048;2023-07-31T13:38:30;2.83;;;1.70;;
10281;SDS011;5186;59.472;18.048;2023-07-31T13:40:56;2.20;;;2.00;;
10281;SDS011;5186;59.472;18.048;2023-07-31T13:43:21;3.37;;;1.50;;
10281;SDS011;5186;59.472;18.048;2023-07-31T13:45:47;2.37;;;1.70;;
10281;SDS011;5186;59.472;18.048;2023-07-31T13:48:13;2.20;;;1.60;;
10281;SDS011;5186;59.472;18.048;2023-07-31T13:50:38;2.07;;;1.60;;
10281;SDS011;5186;59.472;18.048;2023-07-31T13:53:04;1.60;;;1.50;;
10281;SDS011;5186;59.472;18.048;2023-07-31T13:55:29;1.77;;;1.37;;
10281;SDS011;5186;59.472;18.048;2023-07-31T13:57:55;2.60;;;1.50;;
10281;SDS011;5186;59.472;18.048;2023-07-31T14:00:20;2.70;;;1.33;;
10281;SDS011;5186;59.472;18.048;2023-07-31T14:02:46;3.80;;;1.23;;
10281;SDS011;5186;59.472;18.048;2023-07-31T14:05:11;3.40;;;1.60;;
10281;SDS011;5186;59.472;18.048;2023-07-31T14:07:37;2.77;;;1.10;;
10281;SDS011;5186;59.472;18.048;2023-07-31T14:10:03;1.33;;;1.20;;
10281;SDS011;5186;59.472;18.048;2023-07-31T14:12:29;3.70;;;1.30;;
10281;SDS011;5186;59.472;18.048;2023-07-31T14:14:55;6.13;;;1.73;;
10281;SDS011;5186;59.472;18.048;2023-07-31T14:17:21;3.20;;;1.77;;
10281;SDS011;5186;59.472;18.048;2023-07-31T14:19:46;2.43;;;1.50;;
10281;SDS011;5186;59.472;18.048;2023-07-31T14:22:12;1.70;;;1.33;;
10281;SDS011;5186;59.472;18.048;2023-07-31T14:24:38;2.13;;;1.40;;
10281;SDS011;5186;59.472;18.048;2023-07-31T14:27:03;1.50;;;1.40;;
10281;SDS011;5186;59.472;18.048;2023-07-31T14:29:29;2.93;;;1.47;;
10281;SDS011;5186;59.472;18.048;2023-07-31T14:31:55;2.43;;;1.73;;
10281;SDS011;5186;59.472;18.048;2023-07-31T14:34:20;1.87;;;1.40;;
10281;SDS011;5186;59.472;18.048;2023-07-31T14:36:46;2.93;;;1.40;;
10281;SDS011;5186;59.472;18.048;2023-07-31T14:39:12;1.60;;;1.30;;
10281;SDS011;5186;59.472;18.048;2023-07-31T14:41:37;1.70;;;1.30;;
10281;SDS011;5186;59.472;18.048;2023-07-31T14:44:03;1.90;;;1.10;;
10281;SDS011;5186;59.472;18.048;2023-07-31T14:46:28;1.50;;;1.40;;
10281;SDS011;5186;59.472;18.048;2023-07-31T14:48:54;1.93;;;1.00;;
10281;SDS011;5186;59.472;18.048;2023-07-31T14:51:20;2.23;;;1.40;;
10281;SDS011;5186;59.472;18.048;2023-07-31T14:53:46;1.60;;;1.20;;
10281;SDS011;5186;59.472;18.048;2023-07-31T14:56:12;1.60;;;1.20;;
10281;SDS011;5186;59.472;18.048;2023-07-31T14:58:37;1.77;;;1.40;;
10281;SDS011;5186;59.472;18.048;2023-07-31T15:01:03;1.87;;;1.33;;